createdAt,value
2024-02-03T00:00:07.485Z,9.3
2024-02-03T00:01:07.491Z,9.3
2024-02-03T00:02:07.552Z,9.3
2024-02-03T00:03:08.005Z,9.3
2024-02-03T00:04:08.234Z,9.3
2024-02-03T00:05:08.536Z,9.3
2024-02-03T00:06:08.798Z,9.3
2024-02-03T00:07:08.900Z,9.3
2024-02-03T00:08:09.062Z,9.3
2024-02-03T00:09:09.307Z,9.3
2024-02-03T00:10:09.300Z,9.3
2024-02-03T00:11:09.441Z,9.3
2024-02-03T00:12:09.838Z,9.3
2024-02-03T00:13:09.918Z,9.3
2024-02-03T00:14:10.182Z,9.3
2024-02-03T00:15:10.315Z,9.3
2024-02-03T00:16:10.398Z,9.3
2024-02-03T00:17:10.713Z,9.3
2024-02-03T00:18:10.884Z,9.3
2024-02-03T00:19:11.077Z,9.3
2024-02-03T00:20:11.039Z,9.3
2024-02-03T00:21:11.360Z,9.3
2024-02-03T00:22:11.540Z,9.3
2024-02-03T00:23:11.659Z,9.3
2024-02-03T00:24:12.036Z,9.3
2024-02-03T00:25:12.141Z,9.3
2024-02-03T00:26:12.462Z,9.3
2024-02-03T00:27:12.652Z,9.3
2024-02-03T00:28:12.776Z,9.3
2024-02-03T00:29:12.906Z,9.3
2024-02-03T00:30:12.984Z,9.3
2024-02-03T00:31:13.053Z,9.3
2024-02-03T00:32:13.217Z,9.3
2024-02-03T00:33:13.454Z,9.3
2024-02-03T00:34:13.464Z,9.3
2024-02-03T00:35:13.592Z,9.3
2024-02-03T00:36:13.748Z,9.3
2024-02-03T00:37:13.885Z,9.3
2024-02-03T00:38:13.965Z,9.3
2024-02-03T00:39:14.147Z,9.3
2024-02-03T00:40:14.502Z,9.3
2024-02-03T00:41:14.582Z,9.3
2024-02-03T00:42:14.759Z,9.3
2024-02-03T00:43:14.818Z,9.3
2024-02-03T00:44:15.129Z,9.3
2024-02-03T00:45:15.322Z,9.3
2024-02-03T00:46:15.401Z,9.3
2024-02-03T00:47:15.588Z,9.3
2024-02-03T00:48:15.778Z,9.3
2024-02-03T00:49:16.076Z,9.3
2024-02-03T00:50:16.221Z,9.3
2024-02-03T00:51:16.314Z,9.3
2024-02-03T00:52:16.609Z,9.3
2024-02-03T00:53:16.723Z,9.3
2024-02-03T00:54:16.857Z,9.3
2024-02-03T00:55:16.991Z,9.3
2024-02-03T00:56:17.108Z,9.3
2024-02-03T00:57:17.247Z,9.3
2024-02-03T00:58:17.318Z,9.3
2024-02-03T00:59:17.429Z,9.3
2024-02-03T01:00:17.564Z,9.3
2024-02-03T01:01:17.902Z,9.3
2024-02-03T01:02:18.013Z,9.3
2024-02-03T01:03:20.908Z,9.3
2024-02-03T01:04:18.525Z,9.3
2024-02-03T01:05:19.031Z,9.3
2024-02-03T01:06:19.062Z,9.3
2024-02-03T01:07:19.326Z,9.3
2024-02-03T01:08:19.531Z,9.3
2024-02-03T01:09:19.725Z,9.3
2024-02-03T01:10:19.746Z,9.3
2024-02-03T01:11:19.866Z,9.3
2024-02-03T01:12:19.984Z,9.3
2024-02-03T01:13:20.057Z,9.3
2024-02-03T01:14:20.140Z,9.3
2024-02-03T01:15:20.231Z,9.6
2024-02-03T01:16:20.262Z,9.6
2024-02-03T01:17:20.315Z,9.6
2024-02-03T01:18:20.558Z,9.6
2024-02-03T01:19:20.983Z,9.6
2024-02-03T01:20:21.021Z,9.7
2024-02-03T01:21:21.116Z,10
2024-02-03T01:22:21.164Z,10
2024-02-03T01:23:21.335Z,10
2024-02-03T01:24:21.464Z,10
2024-02-03T01:25:21.542Z,10
2024-02-03T01:26:21.743Z,10
2024-02-03T01:27:21.868Z,10
2024-02-03T01:28:21.964Z,10
2024-02-03T01:29:22.075Z,9.7
2024-02-03T01:30:22.269Z,9.6
2024-02-03T01:31:22.341Z,9.6
2024-02-03T01:32:22.578Z,9.6
2024-02-03T01:33:22.944Z,9.6
2024-02-03T01:34:23.201Z,9.6
2024-02-03T01:35:23.265Z,9.6
2024-02-03T01:36:23.464Z,9.6
2024-02-03T01:37:23.580Z,9.6
2024-02-03T01:38:23.948Z,9.6
2024-02-03T01:39:24.424Z,9.6
2024-02-03T01:40:24.501Z,9.6
2024-02-03T01:41:24.861Z,9.6
2024-02-03T01:42:25.171Z,9.6
2024-02-03T01:43:25.791Z,9.6
2024-02-03T01:44:25.554Z,9.6
2024-02-03T01:45:25.671Z,9.6
2024-02-03T01:46:25.766Z,9.6
2024-02-03T01:47:25.926Z,9.6
2024-02-03T01:48:26.167Z,9.6
2024-02-03T01:49:26.302Z,9.6
2024-02-03T01:50:26.410Z,9.6
2024-02-03T01:51:26.541Z,9.6
2024-02-03T01:52:26.620Z,9.6
2024-02-03T01:53:26.806Z,9.6
2024-02-03T01:54:26.908Z,9.6
2024-02-03T01:55:26.901Z,9.6
2024-02-03T01:56:27.306Z,9.6
2024-02-03T01:57:27.466Z,9.6
2024-02-03T01:58:27.629Z,9.6
2024-02-03T01:59:27.687Z,9.6
2024-02-03T02:00:27.874Z,9.6
2024-02-03T02:01:27.988Z,9.6
2024-02-03T02:02:28.062Z,9.6
2024-02-03T02:03:28.245Z,9.6
2024-02-03T02:04:28.424Z,9.6
2024-02-03T02:05:28.413Z,9.6
2024-02-03T02:06:30.890Z,9.6
2024-02-03T02:07:28.706Z,9.6
2024-02-03T02:08:29.152Z,9.6
2024-02-03T02:09:29.299Z,9.6
2024-02-03T02:10:29.395Z,9.6
2024-02-03T02:11:29.499Z,9.6
2024-02-03T02:12:29.880Z,9.6
2024-02-03T02:13:29.975Z,9.6
2024-02-03T02:14:30.343Z,9.6
2024-02-03T02:15:30.486Z,9.6
2024-02-03T02:16:30.563Z,9.3
2024-02-03T02:17:30.792Z,9.3
2024-02-03T02:18:31.068Z,9.3
2024-02-03T02:19:31.022Z,9.3
2024-02-03T02:20:31.155Z,9.3
2024-02-03T02:21:31.314Z,9.3
2024-02-03T02:22:31.429Z,9.3
2024-02-03T02:23:31.553Z,9.3
2024-02-03T02:24:31.646Z,9.3
2024-02-03T02:25:31.743Z,9.3
2024-02-03T02:26:31.934Z,9.3
2024-02-03T02:27:32.149Z,9.3
2024-02-03T02:28:32.124Z,9.3
2024-02-03T02:29:32.311Z,9.3
2024-02-03T02:30:32.700Z,9.3
2024-02-03T02:31:32.750Z,9.3
2024-02-03T02:32:32.897Z,9.3
2024-02-03T02:33:33.074Z,9.3
2024-02-03T02:34:33.123Z,9.3
2024-02-03T02:35:33.184Z,9.3
2024-02-03T02:36:33.307Z,9.3
2024-02-03T02:37:33.419Z,9.3
2024-02-03T02:38:33.679Z,9.3
2024-02-03T02:39:33.789Z,9.3
2024-02-03T02:40:33.831Z,9.3
2024-02-03T02:41:33.940Z,9.3
2024-02-03T02:42:34.126Z,9.3
2024-02-03T02:43:34.259Z,9.3
2024-02-03T02:44:34.434Z,9.3
2024-02-03T02:45:37.667Z,9.3
2024-02-03T02:46:34.685Z,9.3
2024-02-03T02:47:34.882Z,9.3
2024-02-03T02:48:35.051Z,9.3
2024-02-03T02:49:35.428Z,9.3
2024-02-03T02:50:35.177Z,9.3
2024-02-03T02:51:35.310Z,9.3
2024-02-03T02:52:35.392Z,9.3
2024-02-03T02:53:35.456Z,9.3
2024-02-03T02:54:35.751Z,9.3
2024-02-03T02:55:35.906Z,9.3
2024-02-03T02:56:35.985Z,9.3
2024-02-03T02:57:36.163Z,9.3
2024-02-03T02:58:36.209Z,9.3
2024-02-03T02:59:36.315Z,9.3
2024-02-03T03:00:36.563Z,9.3
2024-02-03T03:01:36.646Z,9.3
2024-02-03T03:02:36.748Z,9.3
2024-02-03T03:03:36.905Z,9.3
2024-02-03T03:04:36.977Z,9.3
2024-02-03T03:05:36.906Z,9.3
2024-02-03T03:06:37.203Z,9.3
2024-02-03T03:07:37.397Z,9.3
2024-02-03T03:08:37.437Z,9.3
2024-02-03T03:09:37.678Z,9.3
2024-02-03T03:10:37.717Z,9.3
2024-02-03T03:11:37.888Z,9.3
2024-02-03T03:12:37.905Z,9.3
2024-02-03T03:13:38.002Z,9.3
2024-02-03T03:14:38.159Z,9.3
2024-02-03T03:15:38.281Z,9.3
2024-02-03T03:16:38.425Z,9.3
2024-02-03T03:17:38.883Z,9.3
2024-02-03T03:18:39.104Z,9.3
2024-02-03T03:19:39.266Z,9.3
2024-02-03T03:20:39.254Z,9.3
2024-02-03T03:21:39.409Z,9.3
2024-02-03T03:22:39.470Z,9.3
2024-02-03T03:23:40.005Z,9.3
2024-02-03T03:24:39.903Z,9.3
2024-02-03T03:25:40.064Z,9.3
2024-02-03T03:26:40.249Z,9.3
2024-02-03T03:27:40.586Z,9.6
2024-02-03T03:28:40.700Z,9.6
2024-02-03T03:29:40.920Z,9.5
2024-02-03T03:30:41.048Z,9.3
2024-02-03T03:31:41.176Z,9.3
2024-02-03T03:32:41.310Z,9.3
2024-02-03T03:33:41.519Z,9.3
2024-02-03T03:34:41.590Z,9.3
2024-02-03T03:35:41.656Z,9.3
2024-02-03T03:36:41.838Z,9.3
2024-02-03T03:37:41.922Z,9.3
2024-02-03T03:38:41.997Z,9.3
2024-02-03T03:39:42.376Z,9.3
2024-02-03T03:40:42.450Z,9.3
2024-02-03T03:41:42.901Z,9.3
2024-02-03T03:42:42.848Z,9.3
2024-02-03T03:43:42.932Z,9.3
2024-02-03T03:44:43.049Z,9.3
2024-02-03T03:45:43.160Z,9.3
2024-02-03T03:46:43.309Z,9.3
2024-02-03T03:47:43.433Z,9.3
2024-02-03T03:48:43.559Z,9.3
2024-02-03T03:49:43.743Z,9.3
2024-02-03T03:50:43.695Z,9.3
2024-02-03T03:51:44.154Z,9.3
2024-02-03T03:52:43.900Z,9.3
2024-02-03T03:53:44.032Z,9.3
2024-02-03T03:54:47.148Z,9.3
2024-02-03T03:55:44.603Z,9.3
2024-02-03T03:56:44.756Z,9.3
2024-02-03T03:57:44.864Z,9.3
2024-02-03T03:58:44.920Z,9.3
2024-02-03T03:59:45.027Z,9.3
2024-02-03T04:00:45.188Z,9.3
2024-02-03T04:01:45.306Z,9.3
2024-02-03T04:02:45.358Z,9.3
2024-02-03T04:03:45.495Z,9.3
2024-02-03T04:04:45.585Z,9.3
2024-02-03T04:05:45.762Z,9.3
2024-02-03T04:06:45.956Z,9.3
2024-02-03T04:07:46.103Z,9.3
2024-02-03T04:08:46.216Z,9.3
2024-02-03T04:09:46.636Z,9.3
2024-02-03T04:10:46.699Z,9.3
2024-02-03T04:11:46.872Z,9.3
2024-02-03T04:12:47.018Z,9.3
2024-02-03T04:13:47.015Z,9.3
2024-02-03T04:14:47.220Z,9.3
2024-02-03T04:15:47.449Z,9.3
2024-02-03T04:16:47.747Z,9.3
2024-02-03T04:17:47.858Z,9.3
2024-02-03T04:18:48.013Z,9.3
2024-02-03T04:19:48.281Z,9.3
2024-02-03T04:20:48.233Z,9.3
2024-02-03T04:21:48.431Z,9.3
2024-02-03T04:22:48.766Z,9.3
2024-02-03T04:23:48.922Z,9.3
2024-02-03T04:24:49.048Z,9.3
2024-02-03T04:25:49.183Z,9.3
2024-02-03T04:26:49.547Z,9.3
2024-02-03T04:27:49.603Z,9.3
2024-02-03T04:28:49.970Z,9.3
2024-02-03T04:29:50.098Z,9.3
2024-02-03T04:30:50.201Z,9.3
2024-02-03T04:31:50.315Z,9.3
2024-02-03T04:32:50.453Z,9.3
2024-02-03T04:33:50.632Z,9.3
2024-02-03T04:34:50.735Z,9.3
2024-02-03T04:35:51.346Z,9.3
2024-02-03T04:36:51.053Z,9.3
2024-02-03T04:37:51.108Z,9.3
2024-02-03T04:38:51.269Z,9.4
2024-02-03T04:39:51.418Z,9.6
2024-02-03T04:40:51.493Z,9.6
2024-02-03T04:41:51.846Z,9.6
2024-02-03T04:42:51.993Z,9.6
2024-02-03T04:43:52.102Z,9.6
2024-02-03T04:44:52.181Z,9.6
2024-02-03T04:45:52.348Z,9.6
2024-02-03T04:46:52.417Z,9.6
2024-02-03T04:47:52.968Z,9.6
2024-02-03T04:48:52.671Z,9.6
2024-02-03T04:49:52.855Z,9.6
2024-02-03T04:50:52.932Z,9.6
2024-02-03T04:51:53.184Z,9.6
2024-02-03T04:52:53.202Z,9.6
2024-02-03T04:53:53.406Z,9.3
2024-02-03T04:54:53.560Z,9.3
2024-02-03T04:55:53.623Z,9.3
2024-02-03T04:56:53.741Z,9.3
2024-02-03T04:57:53.851Z,9.3
2024-02-03T04:58:53.922Z,9.3
2024-02-03T04:59:54.061Z,9.3
2024-02-03T05:00:54.757Z,9.3
2024-02-03T05:01:54.434Z,9.3
2024-02-03T05:02:54.547Z,9.3
2024-02-03T05:03:54.757Z,9.3
2024-02-03T05:04:54.937Z,9.3
2024-02-03T05:05:55.031Z,9.3
2024-02-03T05:06:55.183Z,9.3
2024-02-03T05:07:55.291Z,9.3
2024-02-03T05:08:55.401Z,9.3
2024-02-03T05:09:55.656Z,9.3
2024-02-03T05:10:55.508Z,9.3
2024-02-03T05:11:55.625Z,9.3
2024-02-03T05:12:55.743Z,9.3
2024-02-03T05:13:55.834Z,9.3
2024-02-03T05:14:55.997Z,9.3
2024-02-03T05:15:56.246Z,9.3
2024-02-03T05:16:56.263Z,9.4
2024-02-03T05:17:56.489Z,9.6
2024-02-03T05:18:56.709Z,9.6
2024-02-03T05:19:56.809Z,9.6
2024-02-03T05:20:57.021Z,9.6
2024-02-03T05:21:57.199Z,9.6
2024-02-03T05:22:57.577Z,9.6
2024-02-03T05:23:57.484Z,9.6
2024-02-03T05:24:57.629Z,9.6
2024-02-03T05:25:58.775Z,9.6
2024-02-03T05:26:58.119Z,9.6
2024-02-03T05:27:58.405Z,9.6
2024-02-03T05:28:58.949Z,9.6
2024-02-03T05:29:58.711Z,9.6
2024-02-03T05:30:58.845Z,9.6
2024-02-03T05:31:59.102Z,9.6
2024-02-03T05:32:59.324Z,9.6
2024-02-03T05:33:59.554Z,9.6
2024-02-03T05:34:59.509Z,9.6
2024-02-03T05:35:59.629Z,9.6
2024-02-03T05:36:59.721Z,9.6
2024-02-03T05:37:59.921Z,9.6
2024-02-03T05:39:00.033Z,9.6
2024-02-03T05:40:00.462Z,9.6
2024-02-03T05:41:00.408Z,9.6
2024-02-03T05:42:00.614Z,9.6
2024-02-03T05:43:00.815Z,9.6
2024-02-03T05:44:00.829Z,9.6
2024-02-03T05:45:00.994Z,9.6
2024-02-03T05:46:01.122Z,9.6
2024-02-03T05:47:01.462Z,9.6
2024-02-03T05:48:01.554Z,9.6
2024-02-03T05:49:01.799Z,9.6
2024-02-03T05:50:01.889Z,9.6
2024-02-03T05:51:01.950Z,9.6
2024-02-03T05:52:02.061Z,9.6
2024-02-03T05:53:02.172Z,9.6
2024-02-03T05:54:02.386Z,9.6
2024-02-03T05:55:02.488Z,9.6
2024-02-03T05:56:02.643Z,9.6
2024-02-03T05:57:02.710Z,9.6
2024-02-03T05:58:02.815Z,9.6
2024-02-03T05:59:13.018Z,9.6
2024-02-03T06:00:03.095Z,9.6
2024-02-03T06:01:03.327Z,9.6
2024-02-03T06:02:03.368Z,9.6
2024-02-03T06:03:03.497Z,9.6
2024-02-03T06:04:03.749Z,9.6
2024-02-03T06:05:03.966Z,9.6
2024-02-03T06:06:13.534Z,9.6
2024-02-03T06:07:04.468Z,9.6
2024-02-03T06:08:04.703Z,9.6
2024-02-03T06:09:04.733Z,9.6
2024-02-03T06:10:04.841Z,9.6
2024-02-03T06:11:04.989Z,9.6
2024-02-03T06:12:05.116Z,9.6
2024-02-03T06:13:07.548Z,9.6
2024-02-03T06:14:05.345Z,9.6
2024-02-03T06:15:05.443Z,9.6
2024-02-03T06:16:07.925Z,9.6
2024-02-03T06:17:06.326Z,9.6
2024-02-03T06:18:06.088Z,9.7
2024-02-03T06:19:06.291Z,9.9
2024-02-03T06:20:06.497Z,10
2024-02-03T06:21:06.462Z,10
2024-02-03T06:22:06.711Z,10
2024-02-03T06:23:06.878Z,10
2024-02-03T06:24:07.098Z,10
2024-02-03T06:25:07.239Z,10
2024-02-03T06:26:07.355Z,10
2024-02-03T06:27:07.774Z,10
2024-02-03T06:28:07.939Z,10
2024-02-03T06:29:08.283Z,10
2024-02-03T06:30:08.375Z,10
2024-02-03T06:31:08.462Z,10
2024-02-03T06:32:08.571Z,10
2024-02-03T06:33:08.882Z,10
2024-02-03T06:34:09.368Z,10
2024-02-03T06:35:09.113Z,10
2024-02-03T06:36:09.232Z,10
2024-02-03T06:37:09.315Z,10
2024-02-03T06:38:09.413Z,10
2024-02-03T06:39:09.811Z,10
2024-02-03T06:40:09.802Z,10
2024-02-03T06:41:09.976Z,10
2024-02-03T06:44:31.286Z,10
2024-02-03T06:45:31.563Z,10
2024-02-03T06:46:31.634Z,10
2024-02-03T06:47:31.769Z,10
2024-02-03T06:48:32.008Z,10
2024-02-03T06:49:32.134Z,10
2024-02-03T06:50:33.062Z,10
2024-02-03T06:51:32.294Z,10
2024-02-03T06:52:32.342Z,10
2024-02-03T06:53:32.499Z,10
2024-02-03T06:54:32.649Z,10
2024-02-03T06:55:32.837Z,10
2024-02-03T06:56:32.835Z,10
2024-02-03T06:57:33.052Z,10
2024-02-03T06:58:33.151Z,10
2024-02-03T06:59:33.254Z,10
2024-02-03T07:00:33.381Z,10
2024-02-03T07:01:33.546Z,10
2024-02-03T07:02:33.768Z,10
2024-02-03T07:03:34.022Z,10
2024-02-03T07:04:34.184Z,10
2024-02-03T07:05:34.408Z,10
2024-02-03T07:06:34.614Z,10
2024-02-03T07:07:34.635Z,10
2024-02-03T07:08:34.744Z,10
2024-02-03T07:09:35.006Z,10
2024-02-03T07:10:35.065Z,10
2024-02-03T07:11:35.234Z,10
2024-02-03T07:12:35.368Z,10
2024-02-03T07:13:35.599Z,10
2024-02-03T07:14:35.510Z,10
2024-02-03T07:15:35.691Z,10
2024-02-03T07:16:36.338Z,10
2024-02-03T07:17:35.963Z,10
2024-02-03T07:18:36.160Z,10
2024-02-03T07:19:36.275Z,10
2024-02-03T07:20:36.342Z,10
2024-02-03T07:21:36.464Z,10
2024-02-03T07:22:36.475Z,10
2024-02-03T07:23:36.583Z,10
2024-02-03T07:24:36.800Z,10
2024-02-03T07:25:36.855Z,10
2024-02-03T07:26:37.066Z,10
2024-02-03T07:27:37.224Z,10
2024-02-03T07:28:37.295Z,10
2024-02-03T07:29:37.515Z,10
2024-02-03T07:30:37.707Z,10
2024-02-03T07:31:37.774Z,10
2024-02-03T07:32:37.942Z,10
2024-02-03T07:33:38.361Z,9.8
2024-02-03T07:34:38.472Z,9.7
2024-02-03T07:35:38.606Z,9.7
2024-02-03T07:36:38.946Z,9.7
2024-02-03T07:37:38.974Z,9.7
2024-02-03T07:38:39.086Z,9.7
2024-02-03T07:39:39.294Z,9.7
2024-02-03T07:40:39.575Z,9.7
2024-02-03T07:41:39.664Z,9.7
2024-02-03T07:42:39.892Z,10
2024-02-03T07:43:40.088Z,10
2024-02-03T07:44:40.199Z,10
2024-02-03T07:45:40.346Z,10
2024-02-03T07:46:40.363Z,10
2024-02-03T07:47:40.543Z,10
2024-02-03T07:48:40.774Z,10
2024-02-03T07:49:40.959Z,10
2024-02-03T07:50:40.958Z,10
2024-02-03T07:51:41.085Z,10
2024-02-03T07:52:41.068Z,10
2024-02-03T07:53:41.244Z,10
2024-02-03T07:54:41.374Z,10
2024-02-03T07:55:41.447Z,10
2024-02-03T07:56:41.554Z,10
2024-02-03T07:57:41.742Z,10
2024-02-03T07:58:41.872Z,10
2024-02-03T07:59:42.035Z,10
2024-02-03T08:00:42.494Z,10
2024-02-03T08:01:42.570Z,10
2024-02-03T08:02:42.617Z,10
2024-02-03T08:03:42.889Z,10
2024-02-03T08:04:42.962Z,10
2024-02-03T08:05:43.096Z,10
2024-02-03T08:06:43.374Z,10
2024-02-03T08:07:43.429Z,10
2024-02-03T08:08:43.513Z,10
2024-02-03T08:09:43.862Z,10
2024-02-03T08:10:43.945Z,10
2024-02-03T08:11:44.104Z,10
2024-02-03T08:12:44.426Z,10.1
2024-02-03T08:13:44.606Z,10.1
2024-02-03T08:14:44.697Z,10.1
2024-02-03T08:15:44.761Z,10.1
2024-02-03T08:16:44.910Z,10.1
2024-02-03T08:17:45.188Z,10.1
2024-02-03T08:18:45.428Z,10.1
2024-02-03T08:19:45.527Z,10
2024-02-03T08:20:45.596Z,10
2024-02-03T08:21:45.818Z,10
2024-02-03T08:22:45.888Z,10
2024-02-03T08:23:45.984Z,10
2024-02-03T08:24:46.329Z,10
2024-02-03T08:25:46.453Z,10
2024-02-03T08:26:46.504Z,10
2024-02-03T08:27:46.578Z,10
2024-02-03T08:28:46.598Z,10
2024-02-03T08:29:46.762Z,10
2024-02-03T08:30:46.832Z,10
2024-02-03T08:31:46.937Z,10
2024-02-03T08:32:47.063Z,10
2024-02-03T08:33:47.271Z,10
2024-02-03T08:35:47.563Z,10.1
2024-02-03T08:36:47.485Z,10.1
2024-02-03T08:37:47.583Z,10.3
2024-02-03T08:38:47.703Z,10.5
2024-02-03T08:39:47.854Z,10.5
2024-02-03T08:40:47.918Z,10.5
2024-02-03T08:41:48.047Z,10.5
2024-02-03T08:42:48.272Z,10.5
2024-02-03T08:43:48.296Z,10.5
2024-02-03T08:44:48.413Z,10.5
2024-02-03T08:45:48.662Z,10.5
2024-02-03T08:46:48.675Z,10.5
2024-02-03T08:47:48.824Z,10.5
2024-02-03T08:48:49.127Z,10.5
2024-02-03T08:49:49.066Z,10.5
2024-02-03T08:50:49.161Z,10.5
2024-02-03T08:51:49.297Z,10.5
2024-02-03T08:52:49.379Z,10.5
2024-02-03T08:53:49.527Z,10.5
2024-02-03T08:54:49.678Z,10.5
2024-02-03T08:55:49.763Z,10.5
2024-02-03T08:56:49.869Z,10.5
2024-02-03T08:57:50.031Z,10.5
2024-02-03T08:58:50.087Z,10.5
2024-02-03T08:59:50.247Z,10.5
2024-02-03T09:00:50.480Z,10.5
2024-02-03T09:01:50.448Z,10.5
2024-02-03T09:02:50.528Z,10.5
2024-02-03T09:03:52.383Z,10.5
2024-02-03T09:04:50.909Z,10.5
2024-02-03T09:05:50.963Z,10.5
2024-02-03T09:06:51.032Z,10.5
2024-02-03T09:07:51.115Z,10.5
2024-02-03T09:08:51.226Z,10.5
2024-02-03T09:09:51.412Z,10.5
2024-02-03T09:10:51.445Z,10.5
2024-02-03T09:11:51.718Z,10.5
2024-02-03T09:12:51.972Z,10.5
2024-02-03T09:13:51.981Z,10.5
2024-02-03T09:14:52.131Z,10.5
2024-02-03T09:15:52.474Z,10.5
2024-02-03T09:16:52.555Z,10.5
2024-02-03T09:17:52.731Z,10.5
2024-02-03T09:18:52.846Z,10.5
2024-02-03T09:19:52.978Z,10.5
2024-02-03T09:20:52.991Z,10.5
2024-02-03T09:21:53.106Z,10.5
2024-02-03T09:22:53.261Z,10.5
2024-02-03T09:23:53.369Z,10.5
2024-02-03T09:24:53.565Z,10.5
2024-02-03T09:25:53.658Z,10.5
2024-02-03T09:26:53.666Z,10.5
2024-02-03T09:27:53.854Z,10.5
2024-02-03T09:28:53.909Z,10.5
2024-02-03T09:29:54.016Z,10.5
2024-02-03T09:30:54.156Z,10.5
2024-02-03T09:31:56.019Z,10.5
2024-02-03T09:32:54.425Z,10.5
2024-02-03T09:33:54.435Z,10.5
2024-02-03T09:34:54.509Z,10.5
2024-02-03T09:35:54.727Z,10.5
2024-02-03T09:37:55.735Z,10.7
2024-02-03T09:38:55.153Z,10.9
2024-02-03T09:39:55.229Z,10.9
2024-02-03T09:40:55.324Z,10.9
2024-02-03T09:41:55.441Z,10.9
2024-02-03T09:42:55.728Z,10.9
2024-02-03T09:43:55.711Z,10.9
2024-02-03T09:44:55.807Z,10.9
2024-02-03T09:45:55.938Z,10.9
2024-02-03T09:46:55.961Z,10.9
2024-02-03T09:47:56.097Z,10.9
2024-02-03T09:48:56.227Z,10.9
2024-02-03T09:49:56.359Z,10.9
2024-02-03T09:50:56.496Z,10.9
2024-02-03T09:51:56.642Z,10.9
2024-02-03T09:52:56.926Z,10.9
2024-02-03T09:53:57.032Z,10.9
2024-02-03T09:54:57.320Z,11.2
2024-02-03T09:55:57.472Z,11.3
2024-02-03T09:56:57.576Z,11.3
2024-02-03T09:57:57.712Z,11.3
2024-02-03T09:58:57.782Z,11.3
2024-02-03T09:59:57.856Z,11.3
2024-02-03T10:00:58.108Z,11.3
2024-02-03T10:01:58.209Z,11.3
2024-02-03T10:02:58.372Z,11.3
2024-02-03T10:03:58.445Z,11.3
2024-02-03T10:04:58.606Z,11.3
2024-02-03T10:05:58.722Z,11.3
2024-02-03T10:06:58.816Z,11.3
2024-02-03T10:07:58.914Z,11.3
2024-02-03T10:08:59.031Z,11.3
2024-02-03T10:10:59.382Z,11.3
2024-02-03T10:11:59.465Z,11.3
2024-02-03T10:12:59.546Z,11.3
2024-02-03T10:13:59.731Z,11.3
2024-02-03T10:14:59.781Z,11.3
2024-02-03T10:15:59.867Z,11.3
2024-02-03T10:16:59.816Z,11.3
2024-02-03T10:18:00.072Z,11.3
2024-02-03T10:19:00.032Z,11.3
2024-02-03T10:20:00.132Z,11.3
2024-02-03T10:21:00.276Z,11.3
2024-02-03T10:22:00.522Z,11.3
2024-02-03T10:23:00.680Z,11.3
2024-02-03T10:24:00.765Z,11.3
2024-02-03T10:25:00.934Z,11.3
2024-02-03T10:26:01.021Z,11.3
2024-02-03T10:27:01.293Z,11.3
2024-02-03T10:28:01.440Z,11.3
2024-02-03T10:29:01.489Z,11.3
2024-02-03T10:30:01.573Z,11.3
2024-02-03T10:31:02.145Z,11.3
2024-02-03T10:32:01.830Z,11.3
2024-02-03T10:33:01.991Z,11.3
2024-02-03T10:34:02.172Z,11.3
2024-02-03T10:35:02.309Z,11.3
2024-02-03T10:36:02.382Z,11.3
2024-02-03T10:37:02.536Z,11.3
2024-02-03T10:38:02.652Z,11.3
2024-02-03T10:39:02.755Z,11.4
2024-02-03T10:40:02.908Z,11.4
2024-02-03T10:41:02.972Z,11.7
2024-02-03T10:42:03.166Z,11.8
2024-02-03T10:43:03.633Z,11.8
2024-02-03T10:44:03.598Z,11.8
2024-02-03T10:45:03.763Z,11.8
2024-02-03T10:46:03.866Z,11.8
2024-02-03T10:47:04.029Z,11.8
2024-02-03T10:48:04.470Z,11.8
2024-02-03T10:49:04.334Z,11.8
2024-02-03T10:50:04.379Z,11.8
2024-02-03T10:51:04.407Z,11.8
2024-02-03T10:52:04.569Z,11.8
2024-02-03T10:53:04.684Z,11.8
2024-02-03T10:54:04.791Z,11.8
2024-02-03T10:55:05.020Z,11.8
2024-02-03T10:56:05.061Z,11.8
2024-02-03T10:57:06.653Z,11.8
2024-02-03T10:58:05.463Z,11.8
2024-02-03T10:59:05.596Z,11.8
2024-02-03T11:00:05.976Z,11.8
2024-02-03T11:01:06.197Z,11.8
2024-02-03T11:02:06.216Z,11.8
2024-02-03T11:03:06.375Z,11.8
2024-02-03T11:04:06.563Z,11.8
2024-02-03T11:05:06.678Z,11.8
2024-02-03T11:06:06.774Z,11.8
2024-02-03T11:07:06.839Z,11.8
2024-02-03T11:08:06.947Z,11.8
2024-02-03T11:09:07.184Z,11.8
2024-02-03T11:10:07.347Z,11.8
2024-02-03T11:11:07.457Z,11.8
2024-02-03T11:12:07.560Z,11.8
2024-02-03T11:13:07.669Z,11.8
2024-02-03T11:14:07.776Z,11.8
2024-02-03T11:15:08.153Z,11.8
2024-02-03T11:16:08.335Z,12.1
2024-02-03T11:17:08.369Z,12.2
2024-02-03T11:18:08.561Z,12.2
2024-02-03T11:19:08.686Z,12.2
2024-02-03T11:20:08.850Z,12.2
2024-02-03T11:21:08.956Z,12.2
2024-02-03T11:22:09.059Z,12.2
2024-02-03T11:23:09.168Z,12.2
2024-02-03T11:24:09.423Z,12.2
2024-02-03T11:25:09.562Z,12.2
2024-02-03T11:26:09.644Z,12.2
2024-02-03T11:27:10.122Z,12.2
2024-02-03T11:28:10.026Z,12.2
2024-02-03T11:29:10.133Z,12.2
2024-02-03T11:30:13.269Z,12.2
2024-02-03T11:31:10.271Z,12.2
2024-02-03T11:32:10.410Z,12.2
2024-02-03T11:33:10.749Z,12.2
2024-02-03T11:34:10.835Z,12.2
2024-02-03T11:35:10.806Z,12.2
2024-02-03T11:36:10.826Z,12.2
2024-02-03T11:37:10.934Z,12.2
2024-02-03T11:38:11.025Z,12.2
2024-02-03T11:39:11.055Z,12.2
2024-02-03T11:40:11.419Z,12.2
2024-02-03T11:41:11.215Z,12.2
2024-02-03T11:42:11.323Z,12.2
2024-02-03T11:43:11.436Z,12.2
2024-02-03T11:44:11.540Z,12.2
2024-02-03T11:45:11.650Z,12.2
2024-02-03T11:46:11.816Z,12.2
2024-02-03T11:47:11.955Z,12.2
2024-02-03T11:48:12.120Z,12.2
2024-02-03T11:49:12.247Z,12.2
2024-02-03T11:50:12.352Z,12.6
2024-02-03T11:51:12.459Z,12.6
2024-02-03T11:52:12.565Z,12.6
2024-02-03T11:53:12.674Z,12.6
2024-02-03T11:54:12.835Z,12.6
2024-02-03T11:55:12.936Z,12.6
2024-02-03T11:56:13.003Z,12.6
2024-02-03T11:57:13.127Z,12.6
2024-02-03T11:58:13.218Z,12.6
2024-02-03T11:59:13.325Z,12.6
2024-02-03T12:00:13.511Z,12.6
2024-02-03T12:01:13.600Z,12.6
2024-02-03T12:02:13.679Z,12.6
2024-02-03T12:03:13.764Z,12.6
2024-02-03T12:04:13.938Z,12.6
2024-02-03T12:05:14.648Z,12.6
2024-02-03T12:06:14.147Z,12.6
2024-02-03T12:07:14.252Z,12.6
2024-02-03T12:08:14.468Z,12.6
2024-02-03T12:09:14.527Z,12.6
2024-02-03T12:10:14.643Z,12.6
2024-02-03T12:11:14.736Z,12.6
2024-02-03T12:12:14.922Z,12.6
2024-02-03T12:13:15.047Z,12.6
2024-02-03T12:14:15.111Z,12.6
2024-02-03T12:15:15.333Z,12.6
2024-02-03T12:16:15.433Z,12.6
2024-02-03T12:17:15.592Z,12.6
2024-02-03T12:18:15.882Z,12.6
2024-02-03T12:19:16.089Z,12.6
2024-02-03T12:20:15.968Z,12.6
2024-02-03T12:21:16.083Z,12.6
2024-02-03T12:22:16.177Z,12.6
2024-02-03T12:23:19.540Z,12.6
2024-02-03T12:24:16.471Z,12.6
2024-02-03T12:25:16.554Z,12.6
2024-02-03T12:26:16.766Z,12.6
2024-02-03T12:27:16.947Z,12.6
2024-02-03T12:28:17.153Z,12.6
2024-02-03T12:29:17.183Z,12.6
2024-02-03T12:30:17.358Z,12.6
2024-02-03T12:31:17.453Z,12.6
2024-02-03T12:32:17.565Z,12.6
2024-02-03T12:33:17.758Z,12.6
2024-02-03T12:34:17.836Z,12.6
2024-02-03T12:35:18.033Z,12.6
2024-02-03T12:36:18.017Z,12.6
2024-02-03T12:37:18.125Z,12.6
2024-02-03T12:38:18.172Z,12.6
2024-02-03T12:39:18.267Z,12.6
2024-02-03T12:40:18.349Z,12.6
2024-02-03T12:41:18.499Z,12.6
2024-02-03T12:42:18.647Z,12.6
2024-02-03T12:43:18.819Z,12.6
2024-02-03T12:44:18.931Z,12.6
2024-02-03T12:45:19.170Z,12.6
2024-02-03T12:46:19.200Z,12.6
2024-02-03T12:47:19.304Z,12.6
2024-02-03T12:48:19.690Z,12.6
2024-02-03T12:49:19.665Z,12.6
2024-02-03T12:50:19.788Z,12.6
2024-02-03T12:51:19.823Z,12.6
2024-02-03T12:52:19.941Z,12.6
2024-02-03T12:53:20.261Z,12.6
2024-02-03T12:54:20.382Z,12.6
2024-02-03T12:55:20.692Z,12.6
2024-02-03T12:56:20.804Z,12.6
2024-02-03T12:57:20.974Z,12.6
2024-02-03T12:58:21.117Z,12.6
2024-02-03T12:59:21.174Z,12.6
2024-02-03T13:00:21.295Z,12.6
2024-02-03T13:01:21.439Z,12.6
2024-02-03T13:02:21.516Z,12.6
2024-02-03T13:03:21.789Z,12.6
2024-02-03T13:04:21.773Z,12.6
2024-02-03T13:05:21.976Z,12.6
2024-02-03T13:06:22.022Z,12.6
2024-02-03T13:07:22.045Z,12.6
2024-02-03T13:08:22.203Z,12.6
2024-02-03T13:09:22.396Z,12.6
2024-02-03T13:10:22.493Z,12.6
2024-02-03T13:11:23.132Z,12.6
2024-02-03T13:12:22.831Z,12.6
2024-02-03T13:13:22.954Z,12.6
2024-02-03T13:14:23.118Z,12.6
2024-02-03T13:15:23.311Z,12.6
2024-02-03T13:16:23.377Z,12.6
2024-02-03T13:17:23.491Z,12.6
2024-02-03T13:18:23.725Z,12.6
2024-02-03T13:19:23.833Z,12.6
2024-02-03T13:20:23.950Z,12.6
2024-02-03T13:21:24.138Z,12.6
2024-02-03T13:22:24.232Z,12.6
2024-02-03T13:23:24.349Z,12.6
2024-02-03T13:24:24.480Z,12.6
2024-02-03T13:25:24.514Z,12.6
2024-02-03T13:26:24.603Z,12.6
2024-02-03T13:27:24.713Z,12.6
2024-02-03T13:28:24.873Z,12.6
2024-02-03T13:29:24.898Z,12.6
2024-02-03T13:30:25.035Z,12.6
2024-02-03T13:31:25.262Z,12.6
2024-02-03T13:32:25.271Z,12.6
2024-02-03T13:33:25.459Z,12.6
2024-02-03T13:34:25.621Z,12.6
2024-02-03T13:35:25.647Z,12.6
2024-02-03T13:36:25.724Z,12.6
2024-02-03T13:37:25.771Z,12.6
2024-02-03T13:38:25.923Z,12.6
2024-02-03T13:39:26.070Z,12.6
2024-02-03T13:40:26.151Z,12.5
2024-02-03T13:41:26.302Z,12.6
2024-02-03T13:42:26.501Z,12.6
2024-02-03T13:43:26.519Z,12.6
2024-02-03T13:44:26.690Z,12.6
2024-02-03T13:45:28.889Z,12.6
2024-02-03T13:46:26.897Z,12.6